<?xml version="1.0" encoding="UTF-8" standalone="yes"?>
<gpx xmlns="http://www.topografix.com/GPX/1/0" creator="Generated by Christian Pesch's RouteConverter. See http://www.routeconverter.com" version="1.0">
    <time>2011-04-22T11:47:28Z</time>
    <bounds maxlon="6.966876984" maxlat="51.057176460" minlon="6.914906502" minlat="51.028703135"/>
    <trk>
        <name>Neue Positionsliste 1</name>
        <trkseg>
            <trkpt lon="6.976211070707677" lat="51.05265134458544">
                <ele>44.5</ele>
                <time>2011-04-22T10:20:07.000Z</time>
                <name>Kämpenwiese 3, 51371 Leverkusen, Deutschland</name>
            </trkpt>
            <trkpt lon="6.976251303842901" lat="51.05297000743315">
                <ele>44.5</ele>
                <time>2012-02-12T16:26:19.270Z</time>
                <name>Kämpenwiese 9-11, 51371 Leverkusen, Deutschland</name>
            </trkpt>
            <trkpt lon="6.976331770113347" lat="51.05332744674832">
                <ele>44.5</ele>
                <time>2013-01-12T06:14:20.970Z</time>
                <name>Kämpenwiese 10, 51371 Leverkusen, Deutschland</name>
            </trkpt>
            <trkpt lon="6.976540982416509" lat="51.053610698585814">
                <ele>44.5</ele>
                <time>2013-10-28T19:32:20.507Z</time>
                <name>In der Hartmannswiese 2, 51371 Leverkusen, Deutschland</name>
            </trkpt>
            <trkpt lon="6.976758241346715" lat="51.05362924477664">
                <ele>44.570868502188034</ele>
                <time>2012-02-12T15:58:57.640Z</time>
                <name>Alte Garten 16, 51371 Leverkusen, Deutschland</name>
            </trkpt>
            <trkpt lon="6.976567804506658" lat="51.05408952513305">
                <ele>44.5</ele>
                <time>2017-12-31T05:30:57.119Z</time>
                <name>Alte Garten 22, 51371 Leverkusen, Deutschland</name>
            </trkpt>
            <trkpt lon="6.976194977453588" lat="51.05466107569146">
                <ele>44.5</ele>
                <time>2013-01-14T01:45:59.909Z</time>
                <name>Alte Garten 36-38, 51371 Leverkusen, Deutschland</name>
            </trkpt>
            <trkpt lon="6.976149379900335" lat="51.05511460194073">
                <ele>44.58536617696313</ele>
                <time>2018-10-26T07:26:04.872Z</time>
                <name>Alte Garten 42-46, 51371 Leverkusen, Deutschland</name>
            </trkpt>
            <trkpt lon="6.976197659662603" lat="51.05542144617746">
                <ele>44.784632141054615</ele>
                <time>2022-09-27T20:26:00.681Z</time>
                <name>Alte Garten 31, 51371 Leverkusen, Deutschland</name>
            </trkpt>
            <trkpt lon="6.9764792916091665" lat="51.05567939607808">
                <ele>44.683314706040925</ele>
                <time>2013-10-12T09:25:23.908Z</time>
                <name>Alte Garten 31, 51371 Leverkusen, Deutschland</name>
            </trkpt>
            <trkpt lon="6.976683139494753" lat="51.0560616055155">
                <ele>45.3020124621047</ele>
                <time>2025-04-26T13:35:03.469Z</time>
                <name>Alte Garten 31, 51371 Leverkusen, Deutschland</name>
            </trkpt>
            <trkpt lon="6.97663485973203" lat="51.056073904911315">
                <ele>45.41524465831578</ele>
                <time>2014-02-01T18:33:58.739Z</time>
                <name>Alte Garten 31, 51371 Leverkusen, Deutschland</name>
            </trkpt>
            <trkpt lon="6.97588920562589" lat="51.05611436716573">
                <ele>46.759304757969026</ele>
                <time>2014-06-22T04:25:41.158Z</time>
                <name>Alte Garten 60, 51371 Leverkusen, Deutschland</name>
            </trkpt>
            <trkpt lon="6.975194513491033" lat="51.055920485208915">
                <ele>47.2109834434797</ele>
                <time>2014-11-11T17:23:24.145Z</time>
                <name>Alte Garten 62A, 51371 Leverkusen, Deutschland</name>
            </trkpt>
            <trkpt lon="6.974215507200597" lat="51.055419760225675">
                <ele>45.95995271333331</ele>
                <time>2015-07-01T06:36:55.795Z</time>
                <name>Auf der Weide 2, 51371 Leverkusen, Deutschland</name>
            </trkpt>
            <trkpt lon="6.971648633173345" lat="51.05415022110242">
                <ele>44.398796771336215</ele>
                <time>2017-01-27T00:50:34.736Z</time>
                <name>Auf der Weide 13, 51371 Leverkusen, Deutschland</name>
            </trkpt>
            <trkpt lon="6.970506012133001" lat="51.05349942128487">
                <ele>43.0507179357187</ele>
                <time>2017-11-30T16:50:50.268Z</time>
                <name>Im Weidenblech 27, 51371 Leverkusen, Deutschland</name>
            </trkpt>
            <trkpt lon="6.968247592142461" lat="51.05222139917303">
                <ele>41.13158577063297</ele>
                <time>2019-06-30T13:02:54.585Z</time>
                <name>Im Weidenblech 37, 51371 Leverkusen, Deutschland</name>
            </trkpt>
            <trkpt lon="6.967708468130468" lat="51.051815054937876">
                <ele>41.16086288737672</ele>
                <time>2019-09-03T02:53:38.445Z</time>
                <name>Im Weidenblech 37, 51371 Leverkusen, Deutschland</name>
            </trkpt>
            <trkpt lon="6.967469751528142" lat="51.05137835736601">
                <ele>41.512558118704725</ele>
                <time>2019-10-29T10:20:15.246Z</time>
                <name>Rheindorfer Straße 112, 51371 Leverkusen, Deutschland</name>
            </trkpt>
            <trkpt lon="6.967378556421636" lat="51.05098718075516">
                <ele>41.618827648779934</ele>
                <time>2019-12-16T15:10:08.558Z</time>
                <name>Rheindorfer Straße 112, 51371 Leverkusen, Deutschland</name>
            </trkpt>
            <trkpt lon="6.967373192003606" lat="51.05079159121069">
                <ele>41.73710617339717</ele>
                <time>2020-01-09T11:31:40.118Z</time>
                <name>Rheindorfer Straße 112, 51371 Leverkusen, Deutschland</name>
            </trkpt>
            <trkpt lon="6.96739196746671" lat="51.05044256298863">
                <ele>42.445906045653174</ele>
                <time>2020-10-19T01:23:32.195Z</time>
                <name>Rheindorfer Straße 112, 51371 Leverkusen, Deutschland</name>
            </trkpt>
            <trkpt lon="6.96739196746671" lat="51.050344767169655">
                <ele>42.65018843659158</ele>
                <time>2021-08-31T00:22:07.063Z</time>
                <name>Rheindorfer Straße 121, 51371 Leverkusen, Deutschland</name>
            </trkpt>
            <trkpt lon="6.967351734331487" lat="51.05027563551788">
                <ele>42.778253733731624</ele>
                <time>2022-04-25T21:59:29.408Z</time>
                <name>Rheindorfer Straße 121, 51371 Leverkusen, Deutschland</name>
            </trkpt>
            <trkpt lon="6.9671559330734" lat="51.050199759195884">
                <ele>42.8056415518114</ele>
                <time>2022-04-06T09:08:13.400Z</time>
                <name>Rheindorfer Straße 121, 51371 Leverkusen, Deutschland</name>
            </trkpt>
            <trkpt lon="6.966986953905462" lat="51.05020144533771">
                <ele>42.69852601811954</ele>
                <time>2022-04-20T18:13:04.887Z</time>
                <name>Wupperstraße, 51371 Leverkusen, Deutschland</name>
            </trkpt>
            <trkpt lon="6.966018676451085" lat="51.05071571573414">
                <ele>41.72241174130237</ele>
                <time>2024-06-08T04:15:57.338Z</time>
                <name>Wupperstraße, 51371 Leverkusen, Deutschland</name>
            </trkpt>
            <trkpt lon="6.964779495886205" lat="51.051612724528695">
                <ele>44.49864700965899</ele>
                <time>2027-06-21T19:51:24.570Z</time>
                <name>Wupperstraße 5, 51371 Leverkusen, Deutschland</name>
            </trkpt>
            <trkpt lon="6.964977979353307" lat="51.051700401147926">
                <ele>45.30035125070647</ele>
                <time>2027-12-03T21:36:39.354Z</time>
                <name>Wupperstraße 5, 51371 Leverkusen, Deutschland</name>
            </trkpt>
            <trkpt lon="6.965050398996709" lat="51.05164813241395">
                <ele>45.29276822516318</ele>
                <time>2028-02-16T21:13:17.436Z</time>
                <name>Wupperstraße 5, 51371 Leverkusen, Deutschland</name>
            </trkpt>
            <trkpt lon="6.965079903295873" lat="51.05150818680414">
                <ele>44.58399837222096</ele>
                <time>2028-06-06T21:04:08.530Z</time>
                <name>Wupperstraße 5, 51371 Leverkusen, Deutschland</name>
            </trkpt>
            <trkpt lon="6.964924335173009" lat="51.0512552719785">
                <ele>43.387385545773</ele>
                <time>2029-03-05T07:12:52.772Z</time>
                <name>Wupperstraße 5, 51371 Leverkusen, Deutschland</name>
            </trkpt>
            <trkpt lon="6.964353024652837" lat="51.05089950278564">
                <ele>41.63267415216047</ele>
                <time>2030-07-29T13:54:36.225Z</time>
                <name>Wupperstraße 5, 51371 Leverkusen, Deutschland</name>
            </trkpt>
            <trkpt lon="6.963650285890935" lat="51.05053192795303">
                <ele>40.77662708727484</ele>
                <time>2031-10-28T03:49:09.199Z</time>
                <name>Wupperstraße 5, 51371 Leverkusen, Deutschland</name>
            </trkpt>
            <trkpt lon="6.963247954538701" lat="51.050305986011836">
                <ele>40.36403635095155</ele>
                <time>2033-02-07T20:43:02.972Z</time>
                <name>Wupperstraße 5, 51371 Leverkusen, Deutschland</name>
            </trkpt>
            <trkpt lon="6.96228235929334" lat="51.04984735420442">
                <ele>42.27829026435241</ele>
                <time>2035-12-21T21:56:04.202Z</time>
                <name>Wupperstraße 5, 51371 Leverkusen, Deutschland</name>
            </trkpt>
            <trkpt lon="6.961319446256994" lat="51.049467967843384">
                <ele>42.95980559003574</ele>
                <time>2036-08-07T16:29:34.779Z</time>
                <name>Wupperstraße 5, 51371 Leverkusen, Deutschland</name>
            </trkpt>
            <trkpt lon="6.960922479323244" lat="51.049324145327155">
                <ele>42.0735787742284</ele>
                <time>2038-01-01T03:44:50.884Z</time>
                <name>Wupperstraße, 51371 Leverkusen, Deutschland</name>
            </trkpt>
            <trkpt lon="6.959034204176305" lat="51.04884745367447">
                <ele>40.365456702741575</ele>
                <time>2041-03-29T11:30:19.217Z</time>
                <name>Röttgerweg, 51371 Leverkusen, Deutschland</name>
            </trkpt>
            <trkpt lon="6.9559282061370595" lat="51.04829100726822">
                <ele>42.5</ele>
                <time>2046-05-20T23:13:49.662Z</time>
                <name>Im Oberdorf 18, 51371 Leverkusen, Deutschland</name>
            </trkpt>
            <trkpt lon="6.955198645285009" lat="51.048162855027584">
                <ele>41.582565559863575</ele>
                <time>2047-08-04T13:36:51.562Z</time>
                <name>Im Oberdorf 18, 51371 Leverkusen, Deutschland</name>
            </trkpt>
            <trkpt lon="6.953396200827001" lat="51.04777839617821">
                <ele>42.70839640980691</ele>
                <time>2050-08-15T02:20:27.064Z</time>
                <name>Im Oberdorf 12, 51371 Leverkusen, Deutschland</name>
            </trkpt>
            <trkpt lon="6.951368450811742" lat="51.047114016784775">
                <ele>43.85785902590952</ele>
                <time>2054-04-05T01:19:55.869Z</time>
                <name>Im Nesselrader Kamp 18, 51371 Leverkusen, Deutschland</name>
            </trkpt>
            <trkpt lon="6.949453353575109" lat="51.0464462553048">
                <ele>41.01752568960644</ele>
                <time>2057-07-18T00:43:00.371Z</time>
                <name>Burgstraße 10, 51371 Leverkusen, Deutschland</name>
            </trkpt>
            <trkpt lon="6.947747468641637" lat="51.045829073255376">
                <ele>41.89529327767243</ele>
                <time>2060-06-30T11:27:40.275Z</time>
                <name>A59, 51371 Leverkusen, Deutschland</name>
            </trkpt>
            <trkpt lon="6.946760415724157" lat="51.045373769751336">
                <ele>40.53887635844603</ele>
                <time>2062-05-12T01:29:39.396Z</time>
                <name>A59, 51371 Leverkusen, Deutschland</name>
            </trkpt>
            <trkpt lon="6.945580243757604" lat="51.044996033077375">
                <ele>44.66144392823829</ele>
                <time>2064-11-20T15:55:06.973Z</time>
                <name>A59, 51371 Leverkusen, Deutschland</name>
            </trkpt>
            <trkpt lon="6.943858265570043" lat="51.04530631699977">
                <ele>40.94431983086987</ele>
                <time>2068-05-08T04:21:13.391Z</time>
                <name>A59, 51371 Leverkusen, Deutschland</name>
            </trkpt>
            <trkpt lon="6.942763924291967" lat="51.04568067853083">
                <ele>34.82506338206855</ele>
                <time>2070-10-04T06:56:54.499Z</time>
                <name>A59, 51371 Leverkusen, Deutschland</name>
            </trkpt>
            <trkpt lon="6.942286491087316" lat="51.0462135482847">
                <ele>34.455171267265634</ele>
                <time>2071-03-14T10:22:38.883Z</time>
                <name>A59, 51371 Leverkusen, Deutschland</name>
            </trkpt>
            <trkpt lon="6.941117047956823" lat="51.04647323575325">
                <ele>36.07798298872607</ele>
                <time>2071-10-04T12:26:33.409Z</time>
                <name>A59, 51371 Leverkusen, Deutschland</name>
            </trkpt>
            <trkpt lon="6.938923000982641" lat="51.04732648432778">
                <ele>39.26023249695337</ele>
                <time>2077-06-26T13:59:55.787Z</time>
                <name>A59, 51371 Leverkusen, Deutschland</name>
            </trkpt>
            <trkpt lon="6.937780379942296" lat="51.04755581328051">
                <ele>35.00168263067734</ele>
                <time>2080-02-24T16:28:39.381Z</time>
                <name>A59, 51371 Leverkusen, Deutschland</name>
            </trkpt>
            <trkpt lon="6.936739682844518" lat="51.047862707602555">
                <ele>34.687592483038785</ele>
                <time>2082-09-14T01:17:49.913Z</time>
                <name>A59, 51371 Leverkusen, Deutschland</name>
            </trkpt>
            <trkpt lon="6.9347065684112295" lat="51.04874628209783">
                <ele>35.62557468046024</ele>
                <time>2085-05-03T08:36:07.363Z</time>
                <name>A59, 51371 Leverkusen, Deutschland</name>
            </trkpt>
            <trkpt lon="6.932303309133886" lat="51.049859157286015">
                <ele>36.066531291804395</ele>
                <time>2088-07-08T09:06:39.616Z</time>
                <name>Unterstraße 66, 51371 Leverkusen, Deutschland</name>
            </trkpt>
            <trkpt lon="6.926874518087743" lat="51.052570413989486">
                <ele>39.85112062479863</ele>
                <time>2101-08-23T14:37:21.809Z</time>
                <name>Wiesenstraße, 51371 Leverkusen, Deutschland</name>
            </trkpt>
            <trkpt lon="6.92620396583402" lat="51.05306611167135">
                <ele>37.7523845516488</ele>
                <time>2103-08-08T19:27:21.308Z</time>
                <name>Wiesenstraße, 51371 Leverkusen, Deutschland</name>
            </trkpt>
            <trkpt lon="6.925286650350927" lat="51.05355168792942">
                <ele>37.039253441975404</ele>
                <time>2105-11-14T18:20:14.022Z</time>
                <name>Wiesenstraße, 51371 Leverkusen, Deutschland</name>
            </trkpt>
            <trkpt lon="6.924535631826757" lat="51.05388551865338">
                <ele>37.95572769351882</ele>
                <time>2107-08-11T10:13:13.001Z</time>
                <name>Wiesenstraße 83, 51371 Leverkusen, Deutschland</name>
            </trkpt>
            <trkpt lon="6.923741697958349" lat="51.05433736650718">
                <ele>37.86214915541978</ele>
                <time>2109-08-29T21:41:51.160Z</time>
                <name>Wiesenstraße 73, 51371 Leverkusen, Deutschland</name>
            </trkpt>
            <trkpt lon="6.923666596105932" lat="51.05445875771654">
                <ele>37.81099411008373</ele>
                <time>2108-06-07T16:49:36.105Z</time>
                <name>Wiesenstraße 73, 51371 Leverkusen, Deutschland</name>
            </trkpt>
            <trkpt lon="6.922861933401464" lat="51.05491059997699">
                <ele>37.83224002546556</ele>
                <time>2114-10-31T05:24:26.670Z</time>
                <name>Wiesenstraße 69, 51371 Leverkusen, Deutschland</name>
            </trkpt>
            <trkpt lon="6.92070007293546" lat="51.056097507897604">
                <ele>41.32051643952265</ele>
                <time>2114-09-22T13:00:39.018Z</time>
                <name>Wiesenstraße 59, 51371 Leverkusen, Deutschland</name>
            </trkpt>
            <trkpt lon="6.919664740255712" lat="51.05651898776525">
                <ele>42.309079817471954</ele>
                <time>2114-10-09T04:06:48.475Z</time>
                <name>Wiesenstraße 55, 51371 Leverkusen, Deutschland</name>
            </trkpt>
            <trkpt lon="6.918860077551244" lat="51.05689325867169">
                <ele>41.68031316817463</ele>
                <time>2114-10-22T14:54:53.056Z</time>
                <name>Wiesenstraße 45, 51371 Leverkusen, Deutschland</name>
            </trkpt>
            <trkpt lon="6.918178796461461" lat="51.05724055239238">
                <ele>40.19573740998804</ele>
                <time>2119-11-07T15:24:37.889Z</time>
                <name>Fährstraße 1D, 51371 Leverkusen, Deutschland</name>
            </trkpt>
            <trkpt lon="6.917814016035436" lat="51.05697080992261">
                <ele>35.87974991138645</ele>
                <time>2120-11-19T13:10:20.097Z</time>
                <name>Fährstraße, 51371 Leverkusen, Deutschland</name>
            </trkpt>
            <trkpt lon="6.917406320265172" lat="51.05669432226025">
                <ele>32.61782402163679</ele>
                <time>2121-12-27T00:10:43.960Z</time>
                <name>Fährstraße 1D, 51371 Leverkusen, Deutschland</name>
            </trkpt>
            <trkpt lon="6.91571116416776" lat="51.05377086998919">
                <ele>33.805404951881314</ele>
                <time>2130-04-15T12:30:44.108Z</time>
                <name>Hitdorfer Fährweg, 50769 Köln, Deutschland</name>
            </trkpt>
            <trkpt lon="6.915389299085973" lat="51.05358203627651">
                <ele>35.55740838720834</ele>
                <time>2131-01-10T10:51:36.844Z</time>
                <name>Hitdorfer Fährweg, 50769 Köln, Deutschland</name>
            </trkpt>
            <trkpt lon="6.914895772627233" lat="51.053254947487844">
                <ele>39.70470307334638</ele>
                <time>2131-08-15T16:19:20.217Z</time>
                <name>Hitdorfer Fährweg, 50769 Köln, Deutschland</name>
            </trkpt>
            <trkpt lon="6.91720783679807" lat="51.051919591969934">
                <ele>41.84815081770908</ele>
                <time>2134-03-23T21:42:56.866Z</time>
                <name>Langeler Damm 89, 50769 Köln, Deutschland</name>
            </trkpt>
            <trkpt lon="6.917856931379674" lat="51.05149469804843">
                <ele>42.31706118445543</ele>
                <time>2138-02-07T23:05:41.296Z</time>
                <name>Langeler Damm 89, 50769 Köln, Deutschland</name>
            </trkpt>
            <trkpt lon="6.918693780592321" lat="51.05147446490731">
                <ele>39.153705824243254</ele>
                <time>2139-09-06T15:53:57.923Z</time>
                <name>Langeler Damm 99, 50769 Köln, Deutschland</name>
            </trkpt>
            <trkpt lon="6.918822526625036" lat="51.051417137626096">
                <ele>38.94848129193756</ele>
                <time>2139-12-24T00:33:47.778Z</time>
                <name>Langeler Damm 99, 50769 Köln, Deutschland</name>
            </trkpt>
            <trkpt lon="6.919058561018346" lat="51.05123841094109">
                <ele>39.10234833609943</ele>
                <time>2140-09-02T15:30:56.523Z</time>
                <name>Langeler Damm 99, 50769 Köln, Deutschland</name>
            </trkpt>
            <trkpt lon="6.919927596739171" lat="51.050786532849656">
                <ele>37.20058411408689</ele>
                <time>2142-03-21T15:07:25.461Z</time>
                <name>Langeler Damm 99, 50769 Köln, Deutschland</name>
            </trkpt>
            <trkpt lon="6.920732259443639" lat="51.05046279658083">
                <ele>36.96579785027973</ele>
                <time>2143-07-13T08:54:37.296Z</time>
                <name>Langeler Damm 93, 50769 Köln, Deutschland</name>
            </trkpt>
            <trkpt lon="6.921799778631566" lat="51.04994346492278">
                <ele>35.90942930233294</ele>
                <time>2145-05-19T15:43:18.933Z</time>
                <name>Langeler Damm 93, 50769 Köln, Deutschland</name>
            </trkpt>
            <trkpt lon="6.922604441336034" lat="51.04966693530038">
                <ele>37.22411711583652</ele>
                <time>2146-08-22T06:51:03.027Z</time>
                <name>Langeler Damm 93, 50769 Köln, Deutschland</name>
            </trkpt>
            <trkpt lon="6.923081874540685" lat="51.049414010419575">
                <ele>37.699125826054505</ele>
                <time>2148-06-19T02:41:37.609Z</time>
                <name>Am Alten Brauhaus 9, 50769 Köln, Deutschland</name>
            </trkpt>
            <trkpt lon="6.923253535917638" lat="51.04928923363629">
                <ele>38.07284286885883</ele>
                <time>2149-03-26T06:25:25.355Z</time>
                <name>Am Alten Brauhaus 9, 50769 Köln, Deutschland</name>
            </trkpt>
            <trkpt lon="6.923671960523961" lat="51.04888454986386">
                <ele>39.30829958484764</ele>
                <time>2151-06-21T16:46:48.540Z</time>
                <name>Langeler Damm 25A, 50769 Köln, Deutschland</name>
            </trkpt>
            <trkpt lon="6.9239670035156" lat="51.04865859988601">
                <ele>39.55255779612893</ele>
                <time>2152-10-28T22:13:21.551Z</time>
                <name>Langeler Damm 25A, 50769 Köln, Deutschland</name>
            </trkpt>
            <trkpt lon="6.924406885794042" lat="51.048486607372965">
                <ele>39.55301987271137</ele>
                <time>2151-03-27T19:41:07.986Z</time>
                <name>Langeler Damm 25A, 50769 Köln, Deutschland</name>
            </trkpt>
            <trkpt lon="6.924777030638097" lat="51.04828763484538">
                <ele>39.569510867830374</ele>
                <time>2152-05-31T16:41:30.058Z</time>
                <name>Langeler Damm 25A, 50769 Köln, Deutschland</name>
            </trkpt>
            <trkpt lon="6.9255173203262075" lat="51.047535578418575">
                <ele>40.48380973001849</ele>
                <time>2154-12-15T10:24:48.523Z</time>
                <name>Langeler Damm 25A, 50769 Köln, Deutschland</name>
            </trkpt>
            <trkpt lon="6.925967931440709" lat="51.04736358173535">
                <ele>40.7216407874207</ele>
                <time>2155-11-28T12:04:53.410Z</time>
                <name>Langeler Damm 25A, 50769 Köln, Deutschland</name>
            </trkpt>
            <trkpt lon="6.926794051817296" lat="51.047218564427745">
                <ele>39.87617965296743</ele>
                <time>2157-02-28T06:04:40.198Z</time>
                <name>Langeler Damm 25A, 50769 Köln, Deutschland</name>
            </trkpt>
            <trkpt lon="6.927174925497411" lat="51.047009468905856">
                <ele>39.68174150896252</ele>
                <time>2157-11-24T20:28:23.135Z</time>
                <name>Langeler Damm 25A, 50769 Köln, Deutschland</name>
            </trkpt>
            <trkpt lon="6.92894518344724" lat="51.04624052886869">
                <ele>40.749090514525875</ele>
                <time>2161-01-15T10:08:41.643Z</time>
                <name>Langeler Damm 25A, 50769 Köln, Deutschland</name>
            </trkpt>
            <trkpt lon="6.929969787290929" lat="51.045764993773545">
                <ele>40.31459581293675</ele>
                <time>2163-06-27T21:38:43.342Z</time>
                <name>Langeler Damm 25A, 50769 Köln, Deutschland</name>
            </trkpt>
            <trkpt lon="6.93118751018369" lat="51.04551204758501">
                <ele>39.33100177016078</ele>
                <time>2165-07-24T13:03:16.561Z</time>
                <name>Langeler Damm, 50769 Köln, Deutschland</name>
            </trkpt>
            <trkpt lon="6.931654214552282" lat="51.04535690657265">
                <ele>38.66262334877971</ele>
                <time>2166-06-01T07:51:51.560Z</time>
                <name>Langeler Damm, 50769 Köln, Deutschland</name>
            </trkpt>
            <trkpt lon="6.9335317608627065" lat="51.04455083947151">
                <ele>42.45634530481971</ele>
                <time>2170-02-02T16:45:07.871Z</time>
                <name>Langeler Damm, 50769 Köln, Deutschland</name>
            </trkpt>
            <trkpt lon="6.9351303574355825" lat="51.04390327749787">
                <ele>39.34442326284532</ele>
                <time>2173-03-01T14:21:57.630Z</time>
                <name>Langeler Damm, 50769 Köln, Deutschland</name>
            </trkpt>
            <trkpt lon="6.935843825033544" lat="51.04367055770246">
                <ele>38.443978466524804</ele>
                <time>2174-06-19T07:35:04.477Z</time>
                <name>Langeler Damm, 50769 Köln, Deutschland</name>
            </trkpt>
            <trkpt lon="6.936568021467565" lat="51.04339061784885">
                <ele>37.57201982917554</ele>
                <time>2175-10-18T16:20:01.245Z</time>
                <name>Langeler Damm, 50769 Köln, Deutschland</name>
            </trkpt>
            <trkpt lon="6.937061547926305" lat="51.04324896089279">
                <ele>37.2242392181777</ele>
                <time>2176-08-24T03:35:34.015Z</time>
                <name>Langeler Damm, 50769 Köln, Deutschland</name>
            </trkpt>
            <trkpt lon="6.938923000982641" lat="51.042469839891616">
                <ele>42.44176629471836</ele>
                <time>2180-02-24T09:54:48.748Z</time>
                <name>Kasselberger Weg 153, 50769 Köln, Deutschland</name>
            </trkpt>
            <trkpt lon="6.940602063825963" lat="51.041727807708185">
                <ele>37.32890083296717</ele>
                <time>2183-05-13T10:29:15.711Z</time>
                <name>Kasselberger Weg 151, 50769 Köln, Deutschland</name>
            </trkpt>
            <trkpt lon="6.941755413702367" lat="51.04115441106243">
                <ele>38.86841115520706</ele>
                <time>2186-02-04T10:58:38.017Z</time>
                <name>Kasselberger Weg 127, 50769 Köln, Deutschland</name>
            </trkpt>
            <trkpt lon="6.940993666342138" lat="51.04018299349064">
                <ele>41.7483795997392</ele>
                <time>2188-10-04T06:07:50.970Z</time>
                <name>Kasselberger Weg 127, 50769 Köln, Deutschland</name>
            </trkpt>
            <trkpt lon="6.94167494743192" lat="51.04008854902923">
                <ele>42.40367808323049</ele>
                <time>2189-11-03T01:07:24.271Z</time>
                <name>Kasselberger Weg 127, 50769 Köln, Deutschland</name>
            </trkpt>
            <trkpt lon="6.942667364767431" lat="51.03991315166156">
                <ele>43.18734598160983</ele>
                <time>2191-06-09T08:56:54.689Z</time>
                <name>Kasselberger Weg 127, 50769 Köln, Deutschland</name>
            </trkpt>
            <trkpt lon="6.94342911212766" lat="51.039768111029">
                <ele>42.39735628958491</ele>
                <time>2192-09-01T17:30:01.183Z</time>
                <name>Kasselberger Weg 127, 50769 Köln, Deutschland</name>
            </trkpt>
            <trkpt lon="6.94443225829923" lat="51.039467909207566">
                <ele>40.52076290639342</ele>
                <time>2194-05-23T04:37:49.763Z</time>
                <name>Kasselberger Weg 121, 50769 Köln, Deutschland</name>
            </trkpt>
            <trkpt lon="6.94541931121671" lat="51.03914072073749">
                <ele>39.53450286252232</ele>
                <time>2196-02-13T02:03:13.958Z</time>
                <name>Kasselberger Weg 109, 50769 Köln, Deutschland</name>
            </trkpt>
            <trkpt lon="6.945843100241063" lat="51.038982185286976">
                <ele>38.34641329590156</ele>
                <time>2196-03-29T23:30:50.618Z</time>
                <name>Kasselberger Weg 105, 50769 Köln, Deutschland</name>
            </trkpt>
            <trkpt lon="6.94617032974088" lat="51.03885063418218">
                <ele>37.85946099687734</ele>
                <time>2196-05-05T02:59:20.132Z</time>
                <name>Kasselberger Weg 103, 50769 Köln, Deutschland</name>
            </trkpt>
            <trkpt lon="6.946336626699804" lat="51.03875281388777">
                <ele>37.97049520757424</ele>
                <time>2198-04-25T02:05:27.393Z</time>
                <name>Kasselberger Weg 103, 50769 Köln, Deutschland</name>
            </trkpt>
            <trkpt lon="6.946894526174901" lat="51.038999050786224">
                <ele>34.90797339572115</ele>
                <time>2199-03-05T16:16:28.221Z</time>
                <name>Kasselberger Weg 103, 50769 Köln, Deutschland</name>
            </trkpt>
            <trkpt lon="6.948493122747777" lat="51.03813552933532">
                <ele>37.394460952115665</ele>
                <time>2201-11-03T02:42:41.238Z</time>
                <name>Kasselberger Weg 101A, 50769 Köln, Deutschland</name>
            </trkpt>
            <trkpt lon="6.949372887304662" lat="51.03765991103807">
                <ele>38.356835486087036</ele>
                <time>2203-04-22T11:16:26.986Z</time>
                <name>Kasselberger Weg 101A, 50769 Köln, Deutschland</name>
            </trkpt>
            <trkpt lon="6.950483321836828" lat="51.03687057628103">
                <ele>39.41272067785147</ele>
                <time>2205-06-05T14:21:43.576Z</time>
                <name>Kasselberger Weg 101A, 50769 Köln, Deutschland</name>
            </trkpt>
            <trkpt lon="6.951245069197057" lat="51.036432051161356">
                <ele>39.93247598295643</ele>
                <time>2206-09-26T09:24:51.087Z</time>
                <name>Kasselberger Weg 101A, 50769 Köln, Deutschland</name>
            </trkpt>
            <trkpt lon="6.952280401876806" lat="51.03596316201921">
                <ele>39.72945184365307</ele>
                <time>2208-05-08T20:34:33.171Z</time>
                <name>Kasselberger Weg 101A, 50769 Köln, Deutschland</name>
            </trkpt>
            <trkpt lon="6.955311298063634" lat="51.0344046618564">
                <ele>39.25391858745087</ele>
                <time>2213-04-24T11:51:42.938Z</time>
                <name>Kasselberger Weg 61, 50769 Köln, Deutschland</name>
            </trkpt>
            <trkpt lon="6.957993507078527" lat="51.033038401066044">
                <ele>43.10445583211541</ele>
                <time>2222-08-23T00:23:31.134Z</time>
                <name>E37, 50769 Köln, Deutschland</name>
            </trkpt>
            <trkpt lon="6.9554293152602895" lat="51.03155064906122">
                <ele>48.38724832816052</ele>
                <time>2228-01-15T15:24:21.001Z</time>
                <name>Kasselberger Weg 61, 50769 Köln, Deutschland</name>
            </trkpt>
            <trkpt lon="6.955246925047277" lat="51.03212079096145">
                <ele>43.57428609401597</ele>
                <time>2229-06-20T13:19:58.429Z</time>
                <name>Kasselberger Weg 61, 50769 Köln, Deutschland</name>
            </trkpt>
            <trkpt lon="6.95492505996549" lat="51.03245477615403">
                <ele>39.870119765579524</ele>
                <time>2230-06-06T05:56:38.084Z</time>
                <name>Kasselberger Weg 61, 50769 Köln, Deutschland</name>
            </trkpt>
            <trkpt lon="6.954694389990209" lat="51.03265719025084">
                <ele>39.965332446207235</ele>
                <time>2230-11-27T15:23:57.311Z</time>
                <name>Kasselberger Weg 61, 50769 Köln, Deutschland</name>
            </trkpt>
            <trkpt lon="6.953610777548192" lat="51.031948737044104">
                <ele>41.92502742900702</ele>
                <time>2232-10-16T07:11:11.107Z</time>
                <name>Schlettstadter Straße, 50769 Köln, Deutschland</name>
            </trkpt>
            <trkpt lon="6.951969265631078" lat="51.030690362503655">
                <ele>43.686895404006755</ele>
                <time>2235-11-30T07:56:30.048Z</time>
                <name>Merkenicher Hauptstraße 248, 50769 Köln, Deutschland</name>
            </trkpt>
            <trkpt lon="6.949850320509313" lat="51.02922277799078">
                <ele>40.66752124006642</ele>
                <time>2243-04-22T16:01:12.230Z</time>
                <name>Edsel-Ford-Straße, 50769 Köln, Deutschland</name>
            </trkpt>
            <trkpt lon="6.949705481222509" lat="51.02907770389435">
                <ele>41.41849501765725</ele>
                <time>2243-12-11T21:47:00.284Z</time>
                <name>Edsel-Ford-Straße, 50769 Köln, Deutschland</name>
            </trkpt>
            <trkpt lon="6.949855684927343" lat="51.028909012513594">
                <ele>42.421199861185514</ele>
                <time>2243-12-28T22:19:42.191Z</time>
                <name>Edsel-Ford-Straße, 50769 Köln, Deutschland</name>
            </trkpt>
            <trkpt lon="6.950005888632177" lat="51.028790928181735">
                <ele>43.216957796980836</ele>
                <time>2244-01-11T06:00:03.190Z</time>
                <name>Edsel-Ford-Straße, 50769 Köln, Deutschland</name>
            </trkpt>
            <trkpt lon="6.950370669058202" lat="51.02870658204624">
                <ele>44.41028882226801</ele>
                <time>2244-08-04T15:40:54.631Z</time>
                <name>E37, 50769 Köln, Deutschland</name>
            </trkpt>
            <trkpt lon="6.950864195516942" lat="51.02882129275296">
                <ele>44.79305414986314</ele>
                <time>2245-05-11T01:53:09.043Z</time>
                <name>E37, 50769 Köln, Deutschland</name>
            </trkpt>
            <trkpt lon="6.951974630049108" lat="51.02940496342214">
                <ele>45.959162115610546</ele>
                <time>2247-06-18T00:55:43.825Z</time>
                <name>E37, 50769 Köln, Deutschland</name>
            </trkpt>
            <trkpt lon="6.953267454794286" lat="51.030123576751464">
                <ele>46.97606944787275</ele>
                <time>2247-09-23T11:58:52.272Z</time>
                <name>E37, 50769 Köln, Deutschland</name>
            </trkpt>
            <trkpt lon="6.955456137350438" lat="51.03133810916168">
                <ele>49.071743534414615</ele>
                <time>2248-03-06T08:55:14.289Z</time>
                <name>Kasselberger Weg 61, 50769 Köln, Deutschland</name>
            </trkpt>
            <trkpt lon="6.957982778242467" lat="51.032819120891745">
                <ele>45.768456036117364</ele>
                <time>2248-09-17T10:46:08.302Z</time>
                <name>E37, 50769 Köln, Deutschland</name>
            </trkpt>
            <trkpt lon="6.9590502974303945" lat="51.033443223277416">
                <ele>37.365267923586536</ele>
                <time>2248-12-08T18:27:34.202Z</time>
                <name>E37, Deutschland</name>
            </trkpt>
            <trkpt lon="6.963347196272252" lat="51.035804615696335">
                <ele>37.542896569409734</ele>
                <time>2249-10-27T01:51:09.525Z</time>
                <name>E37, 51373 Leverkusen, Deutschland</name>
            </trkpt>
            <trkpt lon="6.964597105673192" lat="51.036452290873655">
                <ele>48.43323021847415</ele>
                <time>2250-01-26T13:23:13.229Z</time>
                <name>E37, 51373 Leverkusen, Deutschland</name>
            </trkpt>
            <trkpt lon="6.96465611427152" lat="51.03651638323747">
                <ele>48.74342805845898</ele>
                <time>2250-02-02T04:53:29.104Z</time>
                <name>E37, 51373 Leverkusen, Deutschland</name>
            </trkpt>
            <trkpt lon="6.964672207525609" lat="51.036587222062785">
                <ele>48.868762132594554</ele>
                <time>2275-06-06T05:41:34.358Z</time>
                <name>E37, 51373 Leverkusen, Deutschland</name>
            </trkpt>
            <trkpt lon="6.964602470091222" lat="51.03670528653098">
                <ele>48.66030794868276</ele>
                <time>2320-01-16T01:16:20.349Z</time>
                <name>E37, 51373 Leverkusen, Deutschland</name>
            </trkpt>
            <trkpt lon="6.964114308050512" lat="51.03703249219921">
                <ele>47.217072190783206</ele>
                <time>2276-12-08T01:39:32.465Z</time>
                <name>E37, 51373 Leverkusen, Deutschland</name>
            </trkpt>
            <trkpt lon="6.963964104345678" lat="51.0370493584082">
                <ele>46.80086307955069</ele>
                <time>2286-03-02T04:23:12.086Z</time>
                <name>E37, 51373 Leverkusen, Deutschland</name>
            </trkpt>
            <trkpt lon="6.9638192650588735" lat="51.036992013274684">
                <ele>46.19294341717651</ele>
                <time>2277-05-12T16:08:15.542Z</time>
                <name>E37, 51373 Leverkusen, Deutschland</name>
            </trkpt>
            <trkpt lon="6.963797807386754" lat="51.036934668066344">
                <ele>45.957660868293964</ele>
                <time>2282-03-04T14:54:07.888Z</time>
                <name>E37, 51373 Leverkusen, Deutschland</name>
            </trkpt>
            <trkpt lon="6.9642430540832265" lat="51.03643879773509">
                <ele>46.8415945001305</ele>
                <time>2278-11-06T23:38:29.620Z</time>
                <name>E37, 51373 Leverkusen, Deutschland</name>
            </trkpt>
            <trkpt lon="6.964752673796056" lat="51.03589569556714">
                <ele>48.662250053409316</ele>
                <time>2280-06-23T13:31:58.104Z</time>
                <name>E37, 51373 Leverkusen, Deutschland</name>
            </trkpt>
            <trkpt lon="6.964983343771337" lat="51.03571353564848">
                <ele>48.70975809255052</ele>
                <time>2281-01-29T04:41:04.282Z</time>
                <name>E37, 51373 Leverkusen, Deutschland</name>
            </trkpt>
            <trkpt lon="6.965273022344945" lat="51.035592095306214">
                <ele>48.664728417627224</ele>
                <time>2281-08-23T20:34:13.437Z</time>
                <name>E37, 51373 Leverkusen, Deutschland</name>
            </trkpt>
            <trkpt lon="6.965610980680822" lat="51.035511134903246">
                <ele>49.15040854633395</ele>
                <time>2281-12-16T19:44:38.332Z</time>
                <name>E37, 51373 Leverkusen, Deutschland</name>
            </trkpt>
            <trkpt lon="6.966238617590307" lat="51.03546390793496">
                <ele>51.07240236900984</ele>
                <time>2283-03-16T18:47:10.327Z</time>
                <name>Rheinallee, 51373 Leverkusen, Deutschland</name>
            </trkpt>
            <trkpt lon="6.966694593122838" lat="51.035511134901235">
                <ele>52.78079033880995</ele>
                <time>2284-02-12T09:05:20.059Z</time>
                <name>Rheinallee, 51373 Leverkusen, Deutschland</name>
            </trkpt>
            <trkpt lon="6.9668662544997915" lat="51.03557185522021">
                <ele>53.27631282399757</ele>
                <time>2284-04-11T01:26:55.372Z</time>
                <name>L108, 51373 Leverkusen, Deutschland</name>
            </trkpt>
            <trkpt lon="6.967096924475072" lat="51.03565618885987">
                <ele>53.99771838204441</ele>
                <time>2284-06-29T13:20:25.723Z</time>
                <name>L108, 51373 Leverkusen, Deutschland</name>
            </trkpt>
            <trkpt lon="6.967241763761876" lat="51.03567642891104">
                <ele>54.37372361541478</ele>
                <time>2284-08-12T11:13:24.074Z</time>
                <name>L108, 51373 Leverkusen, Deutschland</name>
            </trkpt>
            <trkpt lon="6.96739733188474" lat="51.03564944217616">
                <ele>54.61877520981484</ele>
                <time>2285-02-14T04:35:05.077Z</time>
                <name>L108, 51373 Leverkusen, Deutschland</name>
            </trkpt>
            <trkpt lon="6.967499255827306" lat="51.03554149506968">
                <ele>54.44790897279796</ele>
                <time>2285-10-16T03:39:05.632Z</time>
                <name>L108, 51373 Leverkusen, Deutschland</name>
            </trkpt>
            <trkpt lon="6.9676655527862295" lat="51.03531548000716">
                <ele>53.4370646822879</ele>
                <time>2286-01-26T03:10:06.804Z</time>
                <name>Rheinallee, 51373 Leverkusen, Deutschland</name>
            </trkpt>
            <trkpt lon="6.967756747892736" lat="51.03529523979637">
                <ele>53.25476579564567</ele>
                <time>2286-02-20T01:58:53.296Z</time>
                <name>Rheinallee, 51373 Leverkusen, Deutschland</name>
            </trkpt>
            <trkpt lon="6.968261003187536" lat="51.03533909357294">
                <ele>52.80753303752876</ele>
                <time>2286-12-23T15:14:22.860Z</time>
                <name>Nobelstraße 91, 51373 Leverkusen, Deutschland</name>
            </trkpt>
            <trkpt lon="6.969108581236242" lat="51.035980028619406">
                <ele>53.58197255322936</ele>
                <time>2289-02-27T16:42:30.929Z</time>
                <name>L108, 51373 Leverkusen, Deutschland</name>
            </trkpt>
            <trkpt lon="6.969741582563756" lat="51.03631735929354">
                <ele>52.409386047948935</ele>
                <time>2290-08-12T10:43:07.878Z</time>
                <name>L108, 51373 Leverkusen, Deutschland</name>
            </trkpt>
            <trkpt lon="6.9703853127273305" lat="51.03652650307829">
                <ele>51.128051220359886</ele>
                <time>2291-11-19T04:21:44.631Z</time>
                <name>L108, 51373 Leverkusen, Deutschland</name>
            </trkpt>
            <trkpt lon="6.971565484693883" lat="51.036776125069515">
                <ele>49.76871676343727</ele>
                <time>2294-01-24T07:35:21.456Z</time>
                <name>L108, 51373 Leverkusen, Deutschland</name>
            </trkpt>
            <trkpt lon="6.972799300840734" lat="51.03697177379823">
                <ele>47.100758013522245</ele>
                <time>2294-12-13T07:15:51.154Z</time>
                <name>L108, 51373 Leverkusen, Deutschland</name>
            </trkpt>
            <trkpt lon="6.973995566061376" lat="51.03706622461299">
                <ele>46.979469535590965</ele>
                <time>2295-10-15T08:56:14.034Z</time>
                <name>Albert-Einstein-Straße 16, 51373 Leverkusen, Deutschland</name>
            </trkpt>
            <trkpt lon="6.975170373609899" lat="51.03711007671155">
                <ele>46.29555166812144</ele>
                <time>2296-08-08T19:42:20.526Z</time>
                <name>Albert-Einstein-Straße 16, 51373 Leverkusen, Deutschland</name>
            </trkpt>
            <trkpt lon="6.976838707617162" lat="51.03709658376257">
                <ele>45.5</ele>
                <time>2302-04-02T09:19:14.750Z</time>
                <name>Adolfsstraße 98, 51373 Leverkusen, Deutschland</name>
            </trkpt>
            <trkpt lon="6.977037191084264" lat="51.0370695978528">
                <ele>45.5</ele>
                <time>2302-08-13T10:40:37.043Z</time>
                <name>Adolfsstraße 98, 51373 Leverkusen, Deutschland</name>
            </trkpt>
            <trkpt lon="6.97714984386289" lat="51.03706622461299">
                <ele>45.5</ele>
                <time>2302-10-26T08:23:24.092Z</time>
                <name>Adolfsstraße 100, 51373 Leverkusen, Deutschland</name>
            </trkpt>
            <trkpt lon="6.977675556829809" lat="51.03731921691822">
                <ele>45.5</ele>
                <time>2304-01-16T15:10:52.398Z</time>
                <name>Nobelstraße 89, 51373 Leverkusen, Deutschland</name>
            </trkpt>
            <trkpt lon="6.9786518809112295" lat="51.03789603420926">
                <ele>44.80523755063227</ele>
                <time>2306-07-09T12:41:56.695Z</time>
                <name>A59, Leverkusen, Deutschland</name>
            </trkpt>
            <trkpt lon="6.978963017156957" lat="51.03806469287909">
                <ele>44.84722420431738</ele>
                <time>2307-04-13T00:49:24.098Z</time>
                <name>A59, Leverkusen, Deutschland</name>
            </trkpt>
            <trkpt lon="6.9793009754928335" lat="51.03822323146894">
                <ele>45.65538464230254</ele>
                <time>2307-05-13T09:47:58.834Z</time>
                <name>E37, Leverkusen, Deutschland</name>
            </trkpt>
            <trkpt lon="6.978861093214391" lat="51.0387696794725">
                <ele>44.94130831083798</ele>
                <time>2308-12-10T19:15:29.129Z</time>
                <name>A59, Leverkusen, Deutschland</name>
            </trkpt>
            <trkpt lon="6.97888791530454" lat="51.038968692885206">
                <ele>44.910463795092426</ele>
                <time>2309-06-16T23:51:17.653Z</time>
                <name>A59, Leverkusen, Deutschland</name>
            </trkpt>
            <trkpt lon="6.978963017156957" lat="51.0391407207395">
                <ele>45.01884995719457</ele>
                <time>2309-12-25T04:40:23.507Z</time>
                <name>A59, Leverkusen, Deutschland</name>
            </trkpt>
            <trkpt lon="6.978582143476842" lat="51.03965342741875">
                <ele>43.513031441922735</ele>
                <time>2311-08-23T21:15:08.551Z</time>
                <name>Olof-Palme-Straße 15, 51371 Leverkusen, Deutschland</name>
            </trkpt>
            <trkpt lon="6.978077888182042" lat="51.040172874452466">
                <ele>42.85130837136168</ele>
                <time>2313-06-06T12:01:31.804Z</time>
                <name>Olof-Palme-Straße 15, 51371 Leverkusen, Deutschland</name>
            </trkpt>
            <trkpt lon="6.978008150747655" lat="51.04029092978423">
                <ele>43.06199985088556</ele>
                <time>2313-04-03T14:23:12.856Z</time>
                <name>Olof-Palme-Straße 15, 51371 Leverkusen, Deutschland</name>
            </trkpt>
            <trkpt lon="6.977981328657506" lat="51.040432595785354">
                <ele>43.3189528204201</ele>
                <time>2313-06-14T23:16:16.183Z</time>
                <name>Olof-Palme-Straße 15, 51371 Leverkusen, Deutschland</name>
            </trkpt>
            <trkpt lon="6.978099345854162" lat="51.04067207780211">
                <ele>43.88653550641623</ele>
                <time>2314-04-04T11:25:31.147Z</time>
                <name>Olof-Palme-Straße, 51371 Leverkusen, Deutschland</name>
            </trkpt>
            <trkpt lon="6.978614329985021" lat="51.04109032511609">
                <ele>44.16637762627932</ele>
                <time>2315-12-15T04:06:22.793Z</time>
                <name>Bendenweg 113, 51371 Leverkusen, Deutschland</name>
            </trkpt>
            <trkpt lon="6.978710889509557" lat="51.04122524279898">
                <ele>44.21586229542536</ele>
                <time>2316-01-12T07:50:16.792Z</time>
                <name>Bendenweg 105, 51371 Leverkusen, Deutschland</name>
            </trkpt>
            <trkpt lon="6.9789254662307485" lat="51.0419065710957">
                <ele>44.71655931507571</ele>
                <time>2316-05-23T11:01:21.799Z</time>
                <name>Bendenweg 93, 51371 Leverkusen, Deutschland</name>
            </trkpt>
            <trkpt lon="6.979070305517553" lat="51.042689074400606">
                <ele>44.358130646888156</ele>
                <time>2320-09-06T09:07:35.394Z</time>
                <name>Bendenweg 75, 51371 Leverkusen, Deutschland</name>
            </trkpt>
            <trkpt lon="6.979059576681493" lat="51.04313091310055">
                <ele>44.27419917439147</ele>
                <time>2323-02-02T06:41:51.834Z</time>
                <name>Bendenweg 67, 51371 Leverkusen, Deutschland</name>
            </trkpt>
            <trkpt lon="6.978941559484838" lat="51.04371440355243">
                <ele>44.08326832967385</ele>
                <time>2326-04-17T05:01:06.695Z</time>
                <name>Bendenweg 55, 51371 Leverkusen, Deutschland</name>
            </trkpt>
            <trkpt lon="6.978753804853795" lat="51.04414611430083">
                <ele>43.992347011248114</ele>
                <time>2328-09-23T13:06:56.454Z</time>
                <name>Bendenweg 53, 51371 Leverkusen, Deutschland</name>
            </trkpt>
            <trkpt lon="6.978592872312902" lat="51.04442942229299">
                <ele>44.02855225600246</ele>
                <time>2324-06-03T21:55:52.554Z</time>
                <name>Bendenweg 51, 51371 Leverkusen, Deutschland</name>
            </trkpt>
            <trkpt lon="6.978324651411413" lat="51.04493869777931">
                <ele>44.43685564147488</ele>
                <time>2332-02-07T05:44:22.934Z</time>
                <name>Moselstraße 1A, 51371 Leverkusen, Deutschland</name>
            </trkpt>
            <trkpt lon="6.978088617018102" lat="51.0456705606934">
                <ele>44.55735969375676</ele>
                <time>2327-09-24T02:17:25.926Z</time>
                <name>Bendenweg 49, 51371 Leverkusen, Deutschland</name>
            </trkpt>
            <trkpt lon="6.978034972837804" lat="51.04625064658568">
                <ele>44.46289361536794</ele>
                <time>2331-02-17T17:51:59.638Z</time>
                <name>Bendenweg 39, 51371 Leverkusen, Deutschland</name>
            </trkpt>
            <trkpt lon="6.977965235403417" lat="51.04661151030686">
                <ele>44.19636852939633</ele>
                <time>2333-04-02T05:01:49.117Z</time>
                <name>Bendenweg 33, 51371 Leverkusen, Deutschland</name>
            </trkpt>
            <trkpt lon="6.9778257605346425" lat="51.04700272387532">
                <ele>43.84870397194517</ele>
                <time>2330-11-17T11:14:35.620Z</time>
                <name>Bendenweg 21, 51371 Leverkusen, Deutschland</name>
            </trkpt>
            <trkpt lon="6.977450251272558" lat="51.04744789391679">
                <ele>44.25928123875063</ele>
                <time>2332-12-01T15:09:21.181Z</time>
                <name>Von-Ketteler-Straße 124, 51371 Leverkusen, Deutschland</name>
            </trkpt>
            <trkpt lon="6.977208852461217" lat="51.047663732396806">
                <ele>43.742057449679365</ele>
                <time>2333-12-26T22:24:50.634Z</time>
                <name>Von-Ketteler-Straße 124, 51371 Leverkusen, Deutschland</name>
            </trkpt>
            <trkpt lon="6.976693868330358" lat="51.04799423312009">
                <ele>43.119645123191255</ele>
                <time>2334-04-15T13:26:04.555Z</time>
                <name>Von-Ketteler-Straße 124, 51371 Leverkusen, Deutschland</name>
            </trkpt>
            <trkpt lon="6.976194977453588" lat="51.048220186338995">
                <ele>42.72134343901932</ele>
                <time>2334-07-16T04:39:53.746Z</time>
                <name>Von-Ketteler-Straße 124, 51371 Leverkusen, Deutschland</name>
            </trkpt>
            <trkpt lon="6.974998712232946" lat="51.04867546186471">
                <ele>41.91055423765339</ele>
                <time>2337-08-14T12:17:06.003Z</time>
                <name>Rheindorfer Straße 69, 51371 Leverkusen, Deutschland</name>
            </trkpt>
            <trkpt lon="6.974687575987218" lat="51.04914084999895">
                <ele>42.46901999873875</ele>
                <time>2338-11-30T22:07:42.371Z</time>
                <name>Rheindorfer Straße 69, 51371 Leverkusen, Deutschland</name>
            </trkpt>
            <trkpt lon="6.974725126913427" lat="51.050732576964045">
                <ele>43.70894006074147</ele>
                <time>2342-12-14T07:55:47.872Z</time>
                <name>Rheindorfer Straße 47, 51371 Leverkusen, Deutschland</name>
            </trkpt>
            <trkpt lon="6.975556611708043" lat="51.050911305601176">
                <ele>44.105437650507454</ele>
                <time>2344-05-10T04:30:01.750Z</time>
                <name>Rheindorfer Straße 33, 51371 Leverkusen, Deutschland</name>
            </trkpt>
            <trkpt lon="6.976205706289647" lat="51.051032705791485">
                <ele>44.36765996299331</ele>
                <time>2345-06-09T10:43:30.555Z</time>
                <name>Rheindorfer Straße 19-27, 51371 Leverkusen, Deutschland</name>
            </trkpt>
            <trkpt lon="6.976441740682958" lat="51.05106305578931">
                <ele>44.42559440887871</ele>
                <time>2345-10-20T23:00:36.595Z</time>
                <name>Rheindorfer Straße 19, 51371 Leverkusen, Deutschland</name>
            </trkpt>
            <trkpt lon="6.976307630232213" lat="51.05130585505622">
                <ele>44.255700378994355</ele>
                <time>2346-06-04T00:33:26.781Z</time>
                <name>In den Blechenhöfen 7, 51371 Leverkusen, Deutschland</name>
            </trkpt>
            <trkpt lon="6.976039409330724" lat="51.05148458148096">
                <ele>43.911759743507275</ele>
                <time>2347-02-10T16:11:44.040Z</time>
                <name>In den Blechenhöfen 5, 51371 Leverkusen, Deutschland</name>
            </trkpt>
            <trkpt lon="6.976173519781469" lat="51.05188587037459">
                <ele>44.063887198894946</ele>
                <time>2348-03-16T20:28:24.535Z</time>
                <name>In den Blechenhöfen 11-13, 51371 Leverkusen, Deutschland</name>
            </trkpt>
            <trkpt lon="6.976205706289647" lat="51.05227029512924">
                <ele>44.34752582488678</ele>
                <time>2349-03-27T12:05:14.530Z</time>
                <name>In den Blechenhöfen 13, 51371 Leverkusen, Deutschland</name>
            </trkpt>
            <trkpt lon="6.976173519781469" lat="51.052361342630036">
                <ele>44.401535031845036</ele>
                <time>2349-03-28T03:06:21.297Z</time>
                <name>In den Blechenhöfen 15, 51371 Leverkusen, Deutschland</name>
            </trkpt>
        </trkseg>
    </trk>
</gpx>
